Portada
METAR-TAF:

METAR-TAF

Aeroports :

Perm, Rússia

latitud: 58-00N, longitud: 056-15E, altitud: 170 m

Observació

L'informe es va fer fa 22 minuts, a les 16:30 UTC
Vent 8 kt del Sud-Oest
Temperatura -21°C
Humitat 84%
Pressió 1009 hPa
Visibilitat 10 km o més
Núvols disperses a una alçada de 1600 ft
neu

METAR: USPP 201630Z 22004MPS 9999 -SN SCT016 M21/M23 Q1009 R21/450245 NOSIG RMK QFE746

Hora: 21:52 (16:52 UTC)

Pronòstic

L'informe es va fer fa 2 hores i 57 minuts, a les 13:55 UTC
Pronòstic vàlid del 20 a les 15 UTC al 21 a les 15 UTC
Vent 6 kt del Sud-Oest amb ràfegues de 19 kt
Visibilitat: 6000 m
Cel ennuvolat a una alçada de 1600 ft
neu
Temporalment
l' 20 a les 15 UTC al 20 a les 18 UTC
Cel ennuvolat a una alçada de 1100 ft
Evolucionant progressivament
l' 21 a les 03 UTC al 21 a les 05 UTC
Visibilitat: 8000 m
neu

TAF: USPP 201355Z 2015/2115 23003G10MPS 6000 -SN BKN016 TEMPO 2015/2018 BKN011 BECMG 2103/2105 8000 -SN

Observacions i pronòstics meteorològics de més de 4000 aeroports (METAR i TAF).

Les estacions disponibles són els punts grocs i vermells al mapa.

Posi el ratolí al punt desitjat per veure el nom de l'estació.

Feu clic per veure les observacions i els pronòstics meteorològics.

Per canviar el mapa: feu clic els botons verds amb una creu de color negre per apropar; al botó verd amb un guió per allunyar la imatge; o en les fletxes verdes per a mapes adjacents.


METAR-TAF: